createdAt,value
2018-12-09T00:01:32.988Z,8.60
2018-12-09T00:06:57.278Z,8.70
2018-12-09T00:09:25.719Z,9.00
2018-12-09T00:11:54.113Z,9.20
2018-12-09T00:14:22.469Z,9.40
2018-12-09T00:16:50.846Z,9.50
2018-12-09T00:19:19.184Z,9.50
2018-12-09T00:21:47.669Z,9.50
2018-12-09T00:24:16.066Z,9.70
2018-12-09T00:26:44.424Z,9.70
2018-12-09T00:29:25.017Z,9.80
2018-12-09T00:31:53.399Z,9.80
2018-12-09T00:34:21.853Z,9.90
2018-12-09T00:36:50.272Z,9.80
2018-12-09T00:39:18.615Z,9.80
2018-12-09T00:41:53.261Z,9.80
2018-12-09T00:44:21.765Z,9.90
2018-12-09T00:46:50.299Z,9.90
2018-12-09T00:49:18.854Z,9.80
2018-12-09T00:52:00.644Z,9.90
2018-12-09T00:54:28.980Z,9.90
2018-12-09T00:56:57.386Z,9.90
2018-12-09T00:59:25.734Z,9.80
2018-12-09T01:01:54.173Z,9.90
2018-12-09T01:04:22.527Z,9.90
2018-12-09T01:06:56.430Z,9.90
2018-12-09T01:09:27.887Z,9.90
2018-12-09T01:12:00.456Z,10.00
2018-12-09T01:14:31.901Z,10.00
2018-12-09T01:17:04.073Z,10.00
2018-12-09T01:19:35.829Z,10.10
2018-12-09T01:22:07.745Z,10.00
2018-12-09T01:24:39.894Z,10.00
2018-12-09T01:27:11.899Z,10.10
2018-12-09T01:29:43.995Z,10.00
2018-12-09T01:32:16.094Z,10.00
2018-12-09T01:34:48.177Z,10.00
2018-12-09T01:37:20.264Z,10.00
2018-12-09T01:39:52.239Z,10.00
2018-12-09T01:42:24.358Z,9.90
2018-12-09T01:44:56.862Z,9.90
2018-12-09T01:47:30.924Z,9.90
2018-12-09T01:50:03.602Z,9.90
2018-12-09T01:52:37.831Z,9.80
2018-12-09T01:55:12.533Z,9.80
2018-12-09T01:57:44.879Z,9.80
2018-12-09T02:00:17.094Z,9.80
2018-12-09T02:02:49.285Z,9.80
2018-12-09T02:05:21.349Z,9.70
2018-12-09T02:07:53.367Z,9.60
2018-12-09T02:10:26.073Z,9.40
2018-12-09T02:12:57.363Z,9.10
2018-12-09T02:15:34.564Z,8.70
2018-12-09T02:18:18.144Z,8.40
2018-12-09T02:26:58.423Z,7.70
2018-12-09T02:48:04.947Z,8.20
2018-12-09T02:50:43.525Z,8.50
2018-12-09T02:53:18.803Z,8.40
2018-12-09T02:55:58.321Z,8.30
2018-12-09T03:18:38.824Z,7.50
2018-12-09T03:39:33.819Z,7.90
2018-12-09T03:42:16.512Z,7.90
2018-12-09T03:44:51.429Z,8.00
2018-12-09T03:47:27.032Z,8.00
2018-12-09T03:53:06.151Z,8.10
2018-12-09T04:09:41.930Z,8.10
2018-12-09T04:12:15.067Z,8.20
2018-12-09T04:14:45.021Z,8.20
2018-12-09T04:17:20.455Z,8.20
2018-12-09T04:19:55.278Z,8.20
2018-12-09T04:25:23.986Z,8.20
2018-12-09T04:31:06.213Z,8.10
2018-12-09T04:33:37.821Z,8.10
2018-12-09T04:36:13.790Z,8.10
2018-12-09T04:38:48.863Z,8.20
2018-12-09T04:44:29.184Z,8.20
2018-12-09T04:50:07.848Z,8.20
2018-12-09T04:52:44.386Z,8.20
2018-12-09T05:09:53.638Z,8.00
2018-12-09T05:15:35.000Z,7.60
2018-12-09T05:37:21.840Z,7.90
2018-12-09T05:39:59.489Z,7.90
2018-12-09T05:48:52.567Z,8.00
2018-12-09T06:11:51.819Z,7.90
2018-12-09T06:14:35.545Z,7.90
2018-12-09T06:20:24.638Z,7.90
2018-12-09T06:23:02.988Z,7.90
2018-12-09T06:34:35.872Z,7.90
2018-12-09T06:52:34.221Z,8.00
2018-12-09T07:01:14.796Z,8.00
2018-12-09T07:03:57.142Z,8.00
2018-12-09T07:06:35.449Z,7.90
2018-12-09T07:09:16.238Z,7.90
2018-12-09T07:11:54.028Z,7.80
2018-12-09T07:14:29.669Z,7.70
2018-12-09T07:17:08.912Z,7.60
2018-12-09T07:37:47.322Z,7.80
2018-12-09T07:43:26.363Z,7.70
2018-12-09T07:55:08.700Z,7.80
2018-12-09T07:57:45.499Z,7.80
2018-12-09T08:00:21.974Z,7.80
2018-12-09T08:02:53.806Z,7.80
2018-12-09T08:05:29.855Z,7.80
2018-12-09T08:11:14.741Z,7.70
2018-12-09T08:13:47.843Z,7.70
2018-12-09T08:16:19.852Z,7.80
2018-12-09T08:21:56.670Z,7.80
2018-12-09T08:24:29.797Z,7.80
2018-12-09T08:27:02.242Z,7.80
2018-12-09T08:29:37.432Z,7.90
2018-12-09T08:32:12.544Z,7.90
2018-12-09T08:34:44.164Z,8.00
2018-12-09T08:37:21.007Z,8.00
2018-12-09T08:39:58.654Z,8.00
2018-12-09T08:42:31.594Z,8.10
2018-12-09T08:45:29.038Z,8.00
2018-12-09T08:48:08.262Z,8.00
2018-12-09T08:50:40.436Z,8.00
2018-12-09T08:53:17.029Z,8.00
2018-12-09T08:58:45.228Z,8.10
2018-12-09T09:01:17.734Z,8.10
2018-12-09T09:03:53.138Z,8.20
2018-12-09T09:06:27.805Z,8.20
2018-12-09T09:09:03.092Z,8.30
2018-12-09T09:11:39.182Z,8.10
2018-12-09T09:14:17.378Z,8.10
2018-12-09T09:16:49.919Z,8.10
2018-12-09T09:19:22.503Z,7.90
2018-12-09T09:21:55.371Z,7.90
2018-12-09T09:24:27.418Z,7.80
2018-12-09T09:27:00.802Z,7.90
2018-12-09T09:29:36.345Z,7.70
2018-12-09T09:32:27.489Z,7.70
2018-12-09T09:38:05.267Z,7.60
2018-12-09T09:40:37.823Z,7.60
2018-12-09T09:43:10.234Z,7.60
2018-12-09T09:45:42.562Z,7.60
2018-12-09T09:48:15.762Z,7.50
2018-12-09T09:50:51.873Z,7.50
2018-12-09T09:53:31.084Z,7.50
2018-12-09T09:56:16.742Z,7.50
2018-12-09T09:58:50.695Z,7.50
2018-12-09T10:01:28.526Z,7.50
2018-12-09T10:04:00.389Z,7.50
2018-12-09T10:06:32.787Z,7.50
2018-12-09T10:09:07.722Z,7.60
2018-12-09T10:11:42.286Z,7.50
2018-12-09T10:14:16.850Z,7.50
2018-12-09T10:16:51.875Z,7.40
2018-12-09T10:22:36.763Z,7.20
2018-12-09T10:25:16.199Z,7.10
2018-12-09T10:43:45.447Z,6.70
2018-12-09T10:46:28.500Z,6.80
2018-12-09T10:59:54.205Z,7.20
2018-12-09T11:02:26.735Z,7.30
2018-12-09T11:07:55.607Z,7.30
2018-12-09T11:10:39.791Z,7.40
2018-12-09T11:13:14.533Z,7.50
2018-12-09T11:15:45.172Z,7.50
2018-12-09T11:18:16.880Z,7.60
2018-12-09T11:20:51.707Z,7.60
2018-12-09T11:23:24.591Z,7.70
2018-12-09T11:25:58.992Z,7.70
2018-12-09T11:28:34.142Z,7.70
2018-12-09T11:36:58.975Z,7.80
2018-12-09T11:39:30.999Z,7.80
2018-12-09T11:42:07.540Z,7.80
2018-12-09T11:44:43.145Z,7.90
2018-12-09T11:47:16.575Z,7.90
2018-12-09T11:49:52.520Z,8.00
2018-12-09T11:52:25.759Z,7.90
2018-12-09T11:54:58.604Z,7.90
2018-12-09T11:57:33.362Z,7.90
2018-12-09T12:00:21.537Z,7.90
2018-12-09T12:02:55.705Z,7.90
2018-12-09T12:05:26.504Z,7.90
2018-12-09T12:07:59.774Z,7.90
2018-12-09T12:10:31.296Z,7.90
2018-12-09T12:13:03.518Z,7.80
2018-12-09T12:15:35.914Z,7.80
2018-12-09T12:18:09.324Z,7.90
2018-12-09T12:20:41.543Z,7.90
2018-12-09T12:23:17.278Z,7.90
2018-12-09T12:25:54.160Z,7.90
2018-12-09T12:28:28.694Z,7.80
2018-12-09T12:31:14.410Z,7.70
2018-12-09T12:33:46.394Z,7.70
2018-12-09T12:36:17.979Z,7.80
2018-12-09T12:39:04.389Z,7.90
2018-12-09T12:41:42.854Z,7.80
2018-12-09T12:44:17.060Z,7.70
2018-12-09T12:46:49.260Z,7.70
2018-12-09T12:49:21.137Z,7.70
2018-12-09T12:55:43.786Z,7.40
2018-12-09T13:01:25.425Z,7.20
2018-12-09T13:45:57.707Z,6.80
2018-12-09T14:06:49.483Z,7.10
2018-12-09T14:09:25.277Z,7.20
2018-12-09T14:24:05.599Z,7.20
2018-12-09T14:26:50.265Z,7.10
2018-12-09T14:29:36.263Z,7.10
2018-12-09T14:35:16.498Z,7.10
2018-12-09T14:37:58.067Z,7.10
2018-12-09T14:40:34.907Z,7.00
2018-12-09T15:26:50.647Z,6.30
2018-12-09T15:35:39.500Z,6.40
2018-12-09T15:59:47.347Z,6.50
2018-12-09T16:02:26.062Z,6.50
2018-12-09T16:05:08.073Z,6.60
2018-12-09T17:06:47.309Z,7.10
2018-12-09T17:18:58.138Z,7.10
2018-12-09T17:21:41.630Z,7.10
2018-12-09T17:24:20.258Z,7.10
2018-12-09T17:26:59.468Z,7.00
2018-12-09T19:47:35.646Z,6.60
2018-12-09T19:50:13.555Z,6.50
2018-12-09T19:52:52.004Z,6.50
2018-12-09T19:55:28.268Z,6.60
2018-12-09T19:58:17.478Z,6.60
2018-12-09T20:03:57.242Z,6.60
2018-12-09T20:06:41.468Z,6.60
2018-12-09T20:09:16.489Z,6.60
2018-12-09T20:12:10.096Z,6.60
2018-12-09T20:20:51.499Z,6.60
2018-12-09T20:38:26.233Z,6.60
2018-12-09T20:41:09.199Z,6.60
2018-12-09T20:43:53.423Z,6.60
2018-12-09T20:53:48.047Z,6.60
2018-12-09T20:56:26.507Z,6.60
2018-12-09T20:59:09.351Z,6.60
2018-12-09T21:19:49.521Z,6.50
2018-12-09T21:22:24.630Z,6.50
2018-12-09T21:24:59.351Z,6.50
2018-12-09T21:27:37.167Z,6.50
2018-12-09T21:30:11.273Z,6.50
2018-12-09T21:32:44.743Z,6.60
2018-12-09T21:35:18.829Z,6.60
2018-12-09T21:37:53.650Z,6.60
2018-12-09T21:40:32.851Z,6.60
2018-12-09T21:43:10.353Z,6.60
2018-12-09T21:45:46.264Z,6.60
2018-12-09T21:48:21.068Z,6.50
2018-12-09T21:53:58.123Z,6.50
2018-12-09T21:59:39.910Z,6.50
2018-12-09T22:02:26.981Z,6.50
2018-12-09T22:05:39.472Z,6.50
2018-12-09T22:17:34.790Z,6.30
2018-12-09T22:20:12.927Z,6.30
2018-12-09T22:22:55.812Z,6.30
2018-12-09T22:25:44.620Z,6.30
2018-12-09T22:34:13.238Z,6.30
2018-12-09T22:36:46.838Z,6.30
2018-12-09T22:45:17.443Z,6.30
2018-12-09T22:47:51.524Z,6.20
2018-12-09T23:08:33.473Z,6.30
2018-12-09T23:11:17.792Z,6.30
2018-12-09T23:16:48.981Z,6.30
2018-12-09T23:28:12.926Z,6.30
2018-12-09T23:30:45.956Z,6.30
2018-12-09T23:42:10.966Z,6.20
2018-12-09T23:45:00.134Z,6.20
2018-12-09T23:47:43.824Z,6.20
2018-12-09T23:53:18.629Z,6.10
2018-12-09T23:55:53.205Z,6.20
2018-12-09T23:58:28.097Z,6.10
